sensor_id;sensor_type;location;lat;lon;timestamp;P1;durP1;ratioP1;P2;durP2;ratioP2
4597;SDS011;62772;48.646;8.906;2023-03-16T00:02:06;25.03;;;11.03;;
4597;SDS011;62772;48.646;8.906;2023-03-16T00:07:08;22.47;;;10.33;;
4597;SDS011;62772;48.646;8.906;2023-03-16T00:12:13;23.40;;;10.60;;
4597;SDS011;62772;48.646;8.906;2023-03-16T00:17:16;20.93;;;10.67;;
4597;SDS011;62772;48.646;8.906;2023-03-16T00:22:18;19.40;;;10.63;;
4597;SDS011;62772;48.646;8.906;2023-03-16T00:27:21;21.30;;;10.20;;
4597;SDS011;62772;48.646;8.906;2023-03-16T00:32:25;20.50;;;8.63;;
4597;SDS011;62772;48.646;8.906;2023-03-16T00:37:28;14.07;;;9.03;;
4597;SDS011;62772;48.646;8.906;2023-03-16T00:42:32;16.07;;;8.33;;
4597;SDS011;62772;48.646;8.906;2023-03-16T00:47:33;17.37;;;8.80;;
4597;SDS011;62772;48.646;8.906;2023-03-16T00:52:34;21.10;;;9.30;;
4597;SDS011;62772;48.646;8.906;2023-03-16T00:57:35;14.83;;;9.13;;
4597;SDS011;62772;48.646;8.906;2023-03-16T01:02:36;22.10;;;9.67;;
4597;SDS011;62772;48.646;8.906;2023-03-16T01:07:36;15.23;;;8.83;;
4597;SDS011;62772;48.646;8.906;2023-03-16T01:12:37;14.10;;;8.20;;
4597;SDS011;62772;48.646;8.906;2023-03-16T01:17:38;13.63;;;8.23;;
4597;SDS011;62772;48.646;8.906;2023-03-16T01:22:39;14.13;;;7.83;;
4597;SDS011;62772;48.646;8.906;2023-03-16T01:27:39;17.97;;;8.53;;
4597;SDS011;62772;48.646;8.906;2023-03-16T01:32:41;12.20;;;7.47;;
4597;SDS011;62772;48.646;8.906;2023-03-16T01:37:45;12.33;;;7.77;;
4597;SDS011;62772;48.646;8.906;2023-03-16T01:42:58;16.10;;;9.30;;
4597;SDS011;62772;48.646;8.906;2023-03-16T01:48:01;15.00;;;8.53;;
4597;SDS011;62772;48.646;8.906;2023-03-16T01:53:02;16.00;;;9.07;;
4597;SDS011;62772;48.646;8.906;2023-03-16T01:58:03;15.37;;;9.20;;
4597;SDS011;62772;48.646;8.906;2023-03-16T02:03:04;22.33;;;10.90;;
4597;SDS011;62772;48.646;8.906;2023-03-16T02:08:17;24.60;;;10.73;;
4597;SDS011;62772;48.646;8.906;2023-03-16T02:13:22;25.90;;;11.40;;
4597;SDS011;62772;48.646;8.906;2023-03-16T02:18:24;25.87;;;11.10;;
4597;SDS011;62772;48.646;8.906;2023-03-16T02:23:26;24.73;;;12.57;;
4597;SDS011;62772;48.646;8.906;2023-03-16T02:28:30;29.20;;;13.70;;
4597;SDS011;62772;48.646;8.906;2023-03-16T02:33:38;29.23;;;13.03;;
4597;SDS011;62772;48.646;8.906;2023-03-16T02:38:41;40.97;;;14.20;;
4597;SDS011;62772;48.646;8.906;2023-03-16T02:43:43;35.23;;;15.63;;
4597;SDS011;62772;48.646;8.906;2023-03-16T02:54:24;48.03;;;15.80;;
4597;SDS011;62772;48.646;8.906;2023-03-16T02:59:25;35.47;;;16.50;;
4597;SDS011;62772;48.646;8.906;2023-03-16T03:04:26;31.50;;;15.57;;
4597;SDS011;62772;48.646;8.906;2023-03-16T03:09:26;26.60;;;13.30;;
4597;SDS011;62772;48.646;8.906;2023-03-16T03:14:27;23.37;;;10.77;;
4597;SDS011;62772;48.646;8.906;2023-03-16T03:19:28;23.60;;;11.40;;
4597;SDS011;62772;48.646;8.906;2023-03-16T03:24:29;19.10;;;11.03;;
4597;SDS011;62772;48.646;8.906;2023-03-16T03:29:32;18.67;;;10.83;;
4597;SDS011;62772;48.646;8.906;2023-03-16T03:34:36;27.53;;;12.30;;
4597;SDS011;62772;48.646;8.906;2023-03-16T03:39:38;29.50;;;12.80;;
4597;SDS011;62772;48.646;8.906;2023-03-16T03:44:40;89.97;;;16.37;;
4597;SDS011;62772;48.646;8.906;2023-03-16T03:49:41;72.40;;;17.53;;
4597;SDS011;62772;48.646;8.906;2023-03-16T03:54:41;39.37;;;17.23;;
4597;SDS011;62772;48.646;8.906;2023-03-16T03:59:48;30.47;;;16.53;;
4597;SDS011;62772;48.646;8.906;2023-03-16T04:05:12;30.50;;;17.23;;
4597;SDS011;62772;48.646;8.906;2023-03-16T04:10:13;35.60;;;16.27;;
4597;SDS011;62772;48.646;8.906;2023-03-16T04:15:16;32.40;;;16.20;;
4597;SDS011;62772;48.646;8.906;2023-03-16T04:20:40;31.37;;;16.77;;
4597;SDS011;62772;48.646;8.906;2023-03-16T04:25:41;33.90;;;16.63;;
4597;SDS011;62772;48.646;8.906;2023-03-16T04:30:42;32.83;;;17.83;;
4597;SDS011;62772;48.646;8.906;2023-03-16T04:35:52;29.40;;;16.23;;
4597;SDS011;62772;48.646;8.906;2023-03-16T04:40:54;32.00;;;17.63;;
4597;SDS011;62772;48.646;8.906;2023-03-16T04:46:02;32.00;;;17.63;;
4597;SDS011;62772;48.646;8.906;2023-03-16T04:51:04;33.63;;;18.53;;
4597;SDS011;62772;48.646;8.906;2023-03-16T04:56:08;38.90;;;19.67;;
4597;SDS011;62772;48.646;8.906;2023-03-16T05:01:10;36.60;;;18.37;;
4597;SDS011;62772;48.646;8.906;2023-03-16T05:06:11;33.77;;;18.20;;
4597;SDS011;62772;48.646;8.906;2023-03-16T05:11:13;34.17;;;18.90;;
4597;SDS011;62772;48.646;8.906;2023-03-16T05:16:24;29.87;;;17.33;;
4597;SDS011;62772;48.646;8.906;2023-03-16T05:21:24;34.30;;;18.23;;
4597;SDS011;62772;48.646;8.906;2023-03-16T05:26:32;37.67;;;18.87;;
4597;SDS011;62772;48.646;8.906;2023-03-16T05:31:33;30.77;;;17.90;;
4597;SDS011;62772;48.646;8.906;2023-03-16T05:36:38;33.87;;;17.67;;
4597;SDS011;62772;48.646;8.906;2023-03-16T05:41:45;38.70;;;19.30;;
4597;SDS011;62772;48.646;8.906;2023-03-16T05:46:58;35.20;;;18.47;;
4597;SDS011;62772;48.646;8.906;2023-03-16T05:51:59;65.23;;;21.63;;
4597;SDS011;62772;48.646;8.906;2023-03-16T05:57:01;32.70;;;17.83;;
4597;SDS011;62772;48.646;8.906;2023-03-16T06:02:02;33.90;;;17.60;;
4597;SDS011;62772;48.646;8.906;2023-03-16T06:07:03;29.13;;;16.13;;
4597;SDS011;62772;48.646;8.906;2023-03-16T06:12:04;30.80;;;16.30;;
4597;SDS011;62772;48.646;8.906;2023-03-16T06:17:07;31.83;;;17.60;;
4597;SDS011;62772;48.646;8.906;2023-03-16T06:22:07;34.10;;;17.30;;
4597;SDS011;62772;48.646;8.906;2023-03-16T06:27:08;30.33;;;16.00;;
4597;SDS011;62772;48.646;8.906;2023-03-16T06:32:20;29.47;;;16.00;;
4597;SDS011;62772;48.646;8.906;2023-03-16T06:37:21;28.13;;;16.63;;
4597;SDS011;62772;48.646;8.906;2023-03-16T06:42:22;32.00;;;14.60;;
4597;SDS011;62772;48.646;8.906;2023-03-16T06:47:24;35.83;;;18.73;;
4597;SDS011;62772;48.646;8.906;2023-03-16T06:52:25;29.53;;;17.70;;
4597;SDS011;62772;48.646;8.906;2023-03-16T06:57:26;40.87;;;20.97;;
4597;SDS011;62772;48.646;8.906;2023-03-16T07:02:27;30.77;;;17.17;;
4597;SDS011;62772;48.646;8.906;2023-03-16T07:07:28;29.87;;;15.80;;
4597;SDS011;62772;48.646;8.906;2023-03-16T07:12:29;28.37;;;15.30;;
4597;SDS011;62772;48.646;8.906;2023-03-16T07:17:30;31.77;;;15.57;;
4597;SDS011;62772;48.646;8.906;2023-03-16T07:22:32;31.47;;;15.43;;
4597;SDS011;62772;48.646;8.906;2023-03-16T07:27:34;27.40;;;15.23;;
4597;SDS011;62772;48.646;8.906;2023-03-16T07:32:39;28.97;;;16.70;;
4597;SDS011;62772;48.646;8.906;2023-03-16T07:37:41;36.13;;;18.97;;
4597;SDS011;62772;48.646;8.906;2023-03-16T07:42:42;38.07;;;18.60;;
4597;SDS011;62772;48.646;8.906;2023-03-16T07:47:47;32.30;;;17.77;;
4597;SDS011;62772;48.646;8.906;2023-03-16T07:52:56;37.50;;;16.50;;
4597;SDS011;62772;48.646;8.906;2023-03-16T07:57:56;27.27;;;14.97;;
4597;SDS011;62772;48.646;8.906;2023-03-16T08:03:03;30.40;;;17.00;;
4597;SDS011;62772;48.646;8.906;2023-03-16T08:08:04;27.47;;;15.50;;
4597;SDS011;62772;48.646;8.906;2023-03-16T08:13:09;27.47;;;15.60;;
4597;SDS011;62772;48.646;8.906;2023-03-16T08:18:14;29.73;;;16.60;;
4597;SDS011;62772;48.646;8.906;2023-03-16T08:23:15;35.00;;;14.70;;
4597;SDS011;62772;48.646;8.906;2023-03-16T08:28:16;24.93;;;13.70;;
4597;SDS011;62772;48.646;8.906;2023-03-16T08:33:20;23.13;;;13.17;;
4597;SDS011;62772;48.646;8.906;2023-03-16T08:38:21;24.27;;;13.50;;
4597;SDS011;62772;48.646;8.906;2023-03-16T08:43:24;24.50;;;13.17;;
4597;SDS011;62772;48.646;8.906;2023-03-16T08:48:26;21.40;;;12.67;;
4597;SDS011;62772;48.646;8.906;2023-03-16T08:53:28;26.40;;;13.43;;
4597;SDS011;62772;48.646;8.906;2023-03-16T08:58:30;20.50;;;12.57;;
4597;SDS011;62772;48.646;8.906;2023-03-16T09:03:32;21.90;;;12.50;;
4597;SDS011;62772;48.646;8.906;2023-03-16T09:08:33;24.93;;;11.90;;
4597;SDS011;62772;48.646;8.906;2023-03-16T09:13:36;16.90;;;9.93;;
4597;SDS011;62772;48.646;8.906;2023-03-16T09:18:37;12.93;;;8.13;;
4597;SDS011;62772;48.646;8.906;2023-03-16T09:23:39;17.77;;;8.07;;
4597;SDS011;62772;48.646;8.906;2023-03-16T09:28:41;18.97;;;8.37;;
4597;SDS011;62772;48.646;8.906;2023-03-16T09:33:42;11.20;;;6.63;;
4597;SDS011;62772;48.646;8.906;2023-03-16T09:38:42;10.50;;;4.87;;
4597;SDS011;62772;48.646;8.906;2023-03-16T09:44:02;7.50;;;4.97;;
4597;SDS011;62772;48.646;8.906;2023-03-16T09:49:10;9.10;;;4.97;;
4597;SDS011;62772;48.646;8.906;2023-03-16T09:54:23;7.93;;;4.53;;
4597;SDS011;62772;48.646;8.906;2023-03-16T09:59:33;9.03;;;4.53;;
4597;SDS011;62772;48.646;8.906;2023-03-16T10:04:42;11.97;;;5.00;;
4597;SDS011;62772;48.646;8.906;2023-03-16T10:10:00;7.60;;;4.37;;
4597;SDS011;62772;48.646;8.906;2023-03-16T10:15:15;10.80;;;4.40;;
4597;SDS011;62772;48.646;8.906;2023-03-16T10:20:20;4.70;;;3.37;;
4597;SDS011;62772;48.646;8.906;2023-03-16T10:25:28;5.73;;;3.20;;
4597;SDS011;62772;48.646;8.906;2023-03-16T10:30:34;5.73;;;3.50;;
4597;SDS011;62772;48.646;8.906;2023-03-16T10:35:57;9.50;;;3.77;;
4597;SDS011;62772;48.646;8.906;2023-03-16T10:41:53;5.37;;;3.40;;
4597;SDS011;62772;48.646;8.906;2023-03-16T10:46:34;5.43;;;3.33;;
4597;SDS011;62772;48.646;8.906;2023-03-16T10:51:38;6.37;;;3.53;;
4597;SDS011;62772;48.646;8.906;2023-03-16T10:56:39;4.30;;;2.73;;
4597;SDS011;62772;48.646;8.906;2023-03-16T11:01:42;4.87;;;3.20;;
4597;SDS011;62772;48.646;8.906;2023-03-16T11:06:54;5.40;;;3.17;;
4597;SDS011;62772;48.646;8.906;2023-03-16T11:11:59;4.10;;;2.97;;
4597;SDS011;62772;48.646;8.906;2023-03-16T11:17:12;4.33;;;2.70;;
4597;SDS011;62772;48.646;8.906;2023-03-16T11:22:18;5.23;;;2.87;;
4597;SDS011;62772;48.646;8.906;2023-03-16T11:28:22;4.20;;;2.83;;
4597;SDS011;62772;48.646;8.906;2023-03-16T11:33:12;4.73;;;2.80;;
4597;SDS011;62772;48.646;8.906;2023-03-16T11:38:15;5.10;;;2.90;;
4597;SDS011;62772;48.646;8.906;2023-03-16T11:48:48;4.90;;;2.80;;
4597;SDS011;62772;48.646;8.906;2023-03-16T11:54:02;7.10;;;2.70;;
4597;SDS011;62772;48.646;8.906;2023-03-16T12:04:50;5.00;;;2.80;;
4597;SDS011;62772;48.646;8.906;2023-03-16T12:10:03;4.90;;;3.07;;
4597;SDS011;62772;48.646;8.906;2023-03-16T12:15:18;4.90;;;2.77;;
4597;SDS011;62772;48.646;8.906;2023-03-16T12:20:48;2.90;;;2.30;;
4597;SDS011;62772;48.646;8.906;2023-03-16T12:25:53;4.63;;;2.40;;
4597;SDS011;62772;48.646;8.906;2023-03-16T12:31:12;3.30;;;2.10;;
4597;SDS011;62772;48.646;8.906;2023-03-16T12:52:14;4.03;;;2.93;;
4597;SDS011;62772;48.646;8.906;2023-03-16T12:57:15;3.90;;;2.40;;
4597;SDS011;62772;48.646;8.906;2023-03-16T13:02:17;3.90;;;2.83;;
4597;SDS011;62772;48.646;8.906;2023-03-16T13:07:21;4.10;;;2.80;;
4597;SDS011;62772;48.646;8.906;2023-03-16T13:12:28;4.03;;;2.27;;
4597;SDS011;62772;48.646;8.906;2023-03-16T13:17:32;4.50;;;2.63;;
4597;SDS011;62772;48.646;8.906;2023-03-16T13:22:46;3.57;;;2.23;;
4597;SDS011;62772;48.646;8.906;2023-03-16T13:27:53;4.07;;;2.13;;
4597;SDS011;62772;48.646;8.906;2023-03-16T13:32:55;4.03;;;2.33;;
4597;SDS011;62772;48.646;8.906;2023-03-16T13:38:04;4.00;;;2.67;;
4597;SDS011;62772;48.646;8.906;2023-03-16T13:43:11;4.17;;;2.53;;
4597;SDS011;62772;48.646;8.906;2023-03-16T13:48:15;3.60;;;2.40;;
4597;SDS011;62772;48.646;8.906;2023-03-16T13:53:21;3.40;;;2.50;;
4597;SDS011;62772;48.646;8.906;2023-03-16T13:58:34;3.70;;;1.97;;
4597;SDS011;62772;48.646;8.906;2023-03-16T14:03:38;3.60;;;2.30;;
4597;SDS011;62772;48.646;8.906;2023-03-16T14:08:41;3.43;;;2.10;;
4597;SDS011;62772;48.646;8.906;2023-03-16T14:13:49;4.33;;;2.23;;
4597;SDS011;62772;48.646;8.906;2023-03-16T14:18:53;2.80;;;2.07;;
4597;SDS011;62772;48.646;8.906;2023-03-16T14:24:00;4.53;;;2.40;;
4597;SDS011;62772;48.646;8.906;2023-03-16T14:29:26;2.73;;;1.93;;
4597;SDS011;62772;48.646;8.906;2023-03-16T14:34:33;5.23;;;2.37;;
4597;SDS011;62772;48.646;8.906;2023-03-16T14:39:35;3.73;;;2.30;;
4597;SDS011;62772;48.646;8.906;2023-03-16T14:44:37;4.00;;;2.00;;
4597;SDS011;62772;48.646;8.906;2023-03-16T14:49:37;4.17;;;1.90;;
4597;SDS011;62772;48.646;8.906;2023-03-16T14:54:38;5.80;;;2.70;;
4597;SDS011;62772;48.646;8.906;2023-03-16T14:59:39;3.40;;;2.30;;
4597;SDS011;62772;48.646;8.906;2023-03-16T15:04:39;4.63;;;1.93;;
4597;SDS011;62772;48.646;8.906;2023-03-16T15:09:41;3.67;;;2.30;;
4597;SDS011;62772;48.646;8.906;2023-03-16T15:14:45;3.67;;;2.13;;
4597;SDS011;62772;48.646;8.906;2023-03-16T15:20:04;3.93;;;2.00;;
4597;SDS011;62772;48.646;8.906;2023-03-16T15:25:51;4.97;;;2.23;;
4597;SDS011;62772;48.646;8.906;2023-03-16T15:30:36;3.60;;;2.20;;
4597;SDS011;62772;48.646;8.906;2023-03-16T15:35:37;4.10;;;2.33;;
4597;SDS011;62772;48.646;8.906;2023-03-16T15:40:38;4.80;;;2.10;;
4597;SDS011;62772;48.646;8.906;2023-03-16T15:45:41;4.30;;;2.20;;
4597;SDS011;62772;48.646;8.906;2023-03-16T15:50:48;2.63;;;1.80;;
4597;SDS011;62772;48.646;8.906;2023-03-16T15:55:57;4.03;;;2.37;;
4597;SDS011;62772;48.646;8.906;2023-03-16T16:01:02;5.50;;;2.60;;
4597;SDS011;62772;48.646;8.906;2023-03-16T16:06:08;4.40;;;2.80;;
4597;SDS011;62772;48.646;8.906;2023-03-16T16:11:14;3.90;;;2.40;;
4597;SDS011;62772;48.646;8.906;2023-03-16T16:16:18;4.03;;;2.53;;
4597;SDS011;62772;48.646;8.906;2023-03-16T16:21:20;4.60;;;3.10;;
4597;SDS011;62772;48.646;8.906;2023-03-16T16:26:29;3.47;;;2.27;;
4597;SDS011;62772;48.646;8.906;2023-03-16T16:31:35;6.90;;;2.90;;
4597;SDS011;62772;48.646;8.906;2023-03-16T16:36:35;30.43;;;11.80;;
4597;SDS011;62772;48.646;8.906;2023-03-16T16:41:35;12.30;;;7.07;;
4597;SDS011;62772;48.646;8.906;2023-03-16T16:46:37;5.30;;;3.10;;
4597;SDS011;62772;48.646;8.906;2023-03-16T16:51:39;5.13;;;3.23;;
4597;SDS011;62772;48.646;8.906;2023-03-16T16:56:41;6.83;;;3.90;;
4597;SDS011;62772;48.646;8.906;2023-03-16T17:01:42;10.27;;;4.87;;
4597;SDS011;62772;48.646;8.906;2023-03-16T17:06:44;6.27;;;3.80;;
4597;SDS011;62772;48.646;8.906;2023-03-16T17:11:45;23.67;;;11.60;;
4597;SDS011;62772;48.646;8.906;2023-03-16T17:16:45;16.20;;;7.90;;
4597;SDS011;62772;48.646;8.906;2023-03-16T17:21:47;8.40;;;4.63;;
4597;SDS011;62772;48.646;8.906;2023-03-16T17:26:50;6.90;;;4.70;;
4597;SDS011;62772;48.646;8.906;2023-03-16T17:31:53;8.70;;;4.53;;
4597;SDS011;62772;48.646;8.906;2023-03-16T17:36:53;8.33;;;4.60;;
4597;SDS011;62772;48.646;8.906;2023-03-16T17:41:56;10.10;;;6.10;;
4597;SDS011;62772;48.646;8.906;2023-03-16T17:46:58;8.97;;;4.70;;
4597;SDS011;62772;48.646;8.906;2023-03-16T17:51:59;9.87;;;5.57;;
4597;SDS011;62772;48.646;8.906;2023-03-16T17:57:24;10.50;;;6.10;;
4597;SDS011;62772;48.646;8.906;2023-03-16T18:02:49;11.73;;;5.40;;
4597;SDS011;62772;48.646;8.906;2023-03-16T18:08:20;6.50;;;4.73;;
4597;SDS011;62772;48.646;8.906;2023-03-16T18:13:44;10.10;;;5.30;;
4597;SDS011;62772;48.646;8.906;2023-03-16T18:18:48;14.50;;;5.47;;
4597;SDS011;62772;48.646;8.906;2023-03-16T18:23:51;9.40;;;5.47;;
4597;SDS011;62772;48.646;8.906;2023-03-16T18:28:52;9.23;;;5.10;;
4597;SDS011;62772;48.646;8.906;2023-03-16T18:33:54;7.40;;;4.70;;
4597;SDS011;62772;48.646;8.906;2023-03-16T18:38:57;6.87;;;5.00;;
4597;SDS011;62772;48.646;8.906;2023-03-16T18:44:01;8.00;;;4.53;;
4597;SDS011;62772;48.646;8.906;2023-03-16T18:49:15;7.67;;;5.60;;
4597;SDS011;62772;48.646;8.906;2023-03-16T18:54:49;9.20;;;5.70;;
4597;SDS011;62772;48.646;8.906;2023-03-16T18:59:50;14.47;;;6.50;;
4597;SDS011;62772;48.646;8.906;2023-03-16T19:04:51;13.27;;;7.20;;
4597;SDS011;62772;48.646;8.906;2023-03-16T19:09:53;14.07;;;8.37;;
4597;SDS011;62772;48.646;8.906;2023-03-16T19:14:53;16.37;;;9.40;;
4597;SDS011;62772;48.646;8.906;2023-03-16T19:19:54;16.03;;;9.27;;
4597;SDS011;62772;48.646;8.906;2023-03-16T19:24:54;18.97;;;10.70;;
4597;SDS011;62772;48.646;8.906;2023-03-16T19:29:55;18.90;;;10.70;;
4597;SDS011;62772;48.646;8.906;2023-03-16T19:34:55;13.73;;;7.73;;
4597;SDS011;62772;48.646;8.906;2023-03-16T19:39:56;17.77;;;9.97;;
4597;SDS011;62772;48.646;8.906;2023-03-16T19:44:56;15.97;;;10.57;;
4597;SDS011;62772;48.646;8.906;2023-03-16T19:49:57;22.07;;;11.40;;
4597;SDS011;62772;48.646;8.906;2023-03-16T19:54:58;20.77;;;12.57;;
4597;SDS011;62772;48.646;8.906;2023-03-16T19:59:58;24.20;;;13.80;;
4597;SDS011;62772;48.646;8.906;2023-03-16T20:04:59;33.30;;;19.90;;
4597;SDS011;62772;48.646;8.906;2023-03-16T20:09:59;26.80;;;15.50;;
4597;SDS011;62772;48.646;8.906;2023-03-16T20:15:00;23.90;;;13.90;;
4597;SDS011;62772;48.646;8.906;2023-03-16T20:20:01;22.40;;;13.80;;
4597;SDS011;62772;48.646;8.906;2023-03-16T20:25:01;23.77;;;13.63;;
4597;SDS011;62772;48.646;8.906;2023-03-16T20:30:12;16.73;;;10.20;;
4597;SDS011;62772;48.646;8.906;2023-03-16T20:35:22;18.27;;;10.43;;
4597;SDS011;62772;48.646;8.906;2023-03-16T20:40:24;17.13;;;10.00;;
4597;SDS011;62772;48.646;8.906;2023-03-16T20:45:25;17.67;;;10.40;;
4597;SDS011;62772;48.646;8.906;2023-03-16T20:50:28;17.70;;;9.67;;
4597;SDS011;62772;48.646;8.906;2023-03-16T20:55:29;15.50;;;9.33;;
4597;SDS011;62772;48.646;8.906;2023-03-16T21:00:36;18.43;;;8.97;;
4597;SDS011;62772;48.646;8.906;2023-03-16T21:05:38;17.70;;;9.30;;
4597;SDS011;62772;48.646;8.906;2023-03-16T21:10:39;17.47;;;9.50;;
4597;SDS011;62772;48.646;8.906;2023-03-16T21:15:41;17.90;;;9.63;;
4597;SDS011;62772;48.646;8.906;2023-03-16T21:20:42;17.40;;;9.30;;
4597;SDS011;62772;48.646;8.906;2023-03-16T21:25:53;19.30;;;9.20;;
4597;SDS011;62772;48.646;8.906;2023-03-16T21:30:58;17.30;;;9.20;;
4597;SDS011;62772;48.646;8.906;2023-03-16T21:36:00;13.63;;;8.97;;
4597;SDS011;62772;48.646;8.906;2023-03-16T21:41:03;18.70;;;9.47;;
4597;SDS011;62772;48.646;8.906;2023-03-16T21:46:05;13.13;;;8.63;;
4597;SDS011;62772;48.646;8.906;2023-03-16T21:51:14;12.23;;;8.23;;
4597;SDS011;62772;48.646;8.906;2023-03-16T21:56:18;17.17;;;9.00;;
4597;SDS011;62772;48.646;8.906;2023-03-16T22:01:25;13.67;;;8.13;;
4597;SDS011;62772;48.646;8.906;2023-03-16T22:06:29;14.67;;;9.10;;
4597;SDS011;62772;48.646;8.906;2023-03-16T22:11:30;15.70;;;8.97;;
4597;SDS011;62772;48.646;8.906;2023-03-16T22:16:30;15.50;;;8.87;;
4597;SDS011;62772;48.646;8.906;2023-03-16T22:21:35;11.33;;;7.70;;
4597;SDS011;62772;48.646;8.906;2023-03-16T22:26:38;24.53;;;9.30;;
4597;SDS011;62772;48.646;8.906;2023-03-16T22:31:38;16.87;;;8.13;;
4597;SDS011;62772;48.646;8.906;2023-03-16T22:36:40;14.53;;;8.73;;
4597;SDS011;62772;48.646;8.906;2023-03-16T22:41:41;16.77;;;7.77;;
4597;SDS011;62772;48.646;8.906;2023-03-16T22:46:42;14.33;;;8.40;;
4597;SDS011;62772;48.646;8.906;2023-03-16T22:51:42;13.27;;;8.20;;
4597;SDS011;62772;48.646;8.906;2023-03-16T22:56:43;12.30;;;7.93;;
4597;SDS011;62772;48.646;8.906;2023-03-16T23:01:46;15.10;;;8.10;;
4597;SDS011;62772;48.646;8.906;2023-03-16T23:06:50;16.60;;;6.67;;
4597;SDS011;62772;48.646;8.906;2023-03-16T23:11:52;12.63;;;6.50;;
4597;SDS011;62772;48.646;8.906;2023-03-16T23:16:53;13.93;;;7.77;;
4597;SDS011;62772;48.646;8.906;2023-03-16T23:21:55;10.77;;;6.83;;
4597;SDS011;62772;48.646;8.906;2023-03-16T23:26:58;14.93;;;7.47;;
4597;SDS011;62772;48.646;8.906;2023-03-16T23:32:00;10.63;;;6.40;;
4597;SDS011;62772;48.646;8.906;2023-03-16T23:37:00;11.43;;;6.83;;
4597;SDS011;62772;48.646;8.906;2023-03-16T23:42:01;14.40;;;6.80;;
4597;SDS011;62772;48.646;8.906;2023-03-16T23:47:01;12.73;;;6.63;;
4597;SDS011;62772;48.646;8.906;2023-03-16T23:52:02;10.57;;;5.80;;
4597;SDS011;62772;48.646;8.906;2023-03-16T23:57:02;10.17;;;6.10;;
